Terminal Aerodrome Forecast
Issued by NWS

Home | Current Version | Previous Version | Text Only | Print | Product List | Glossary On
Versions: 1 2 3 4 5 6 7 8 9 10 11 12 13 14 15
000
FTUS45 KRIW 210500
TAFBPI
TAF
KBPI 210526Z 2106/2206 34007KT P6SM SCT250
     FM211400 16006KT P6SM SCT250
     FM212100 18008KT P6SM SCT090 BKN250
     FM220500 17006KT P6SM BKN080=

USA.gov is the U.S. government's official web portal to all federal, state and local government web resources and services.